createdAt,value
2018-03-22T00:00:06.474Z,27.2
2018-03-22T00:00:56.142Z,26.8
2018-03-22T00:01:46.199Z,26.6
2018-03-22T00:02:37.460Z,26.3
2018-03-22T00:03:26.832Z,26.1
2018-03-22T00:04:15.331Z,25.8
2018-03-22T00:05:06.758Z,25.7
2018-03-22T00:05:55.729Z,25.5
2018-03-22T00:06:47.143Z,25.3
2018-03-22T00:07:36.196Z,25.3
2018-03-22T00:08:27.271Z,24.9
2018-03-22T00:09:17.932Z,24.7
2018-03-22T00:10:05.598Z,24.4
2018-03-22T00:10:57.001Z,24.3
2018-03-22T00:11:47.703Z,24.2
2018-03-22T00:12:36.196Z,25.1
2018-03-22T00:13:26.786Z,25.8
2018-03-22T00:14:16.350Z,26.3
2018-03-22T00:15:05.848Z,26.7
2018-03-22T00:15:56.777Z,27.1
2018-03-22T00:16:47.806Z,27.4
2018-03-22T00:17:37.215Z,27.6
2018-03-22T00:18:27.766Z,27.9
2018-03-22T00:19:17.298Z,28.1
2018-03-22T00:20:07.656Z,28.3
2018-03-22T00:20:57.460Z,28.4
2018-03-22T00:21:47.603Z,28.6
2018-03-22T00:22:37.728Z,28.8
2018-03-22T00:23:28.681Z,28.9
2018-03-22T00:24:17.796Z,28.3
2018-03-22T00:25:07.633Z,27.5
2018-03-22T00:25:57.753Z,26.1
2018-03-22T00:26:48.157Z,25.2
2018-03-22T00:27:38.983Z,24.2
2018-03-22T00:28:29.198Z,23.1
2018-03-22T00:29:18.162Z,22.1
2018-03-22T00:30:07.995Z,22.3
2018-03-22T00:30:56.958Z,22.5
2018-03-22T00:31:48.987Z,23.8
2018-03-22T00:32:38.322Z,24.9
2018-03-22T00:33:28.805Z,25.8
2018-03-22T00:34:18.432Z,26.4
2018-03-22T00:35:07.850Z,26.9
2018-03-22T00:35:58.402Z,27.3
2018-03-22T00:36:49.139Z,27.6
2018-03-22T00:37:37.725Z,27.9
2018-03-22T00:38:29.084Z,28.3
2018-03-22T00:39:18.886Z,28.4
2018-03-22T00:40:09.015Z,28.7
2018-03-22T00:40:58.849Z,28.9
2018-03-22T00:41:49.546Z,29.1
2018-03-22T00:42:39.394Z,29.3
2018-03-22T00:43:29.680Z,29.4
2018-03-22T00:44:18.725Z,29.6
2018-03-22T00:45:09.827Z,29.7
2018-03-22T00:45:58.304Z,29.8
2018-03-22T00:46:49.231Z,29.9
2018-03-22T00:47:39.579Z,28.9
2018-03-22T00:48:28.791Z,28.3
2018-03-22T00:49:19.416Z,27.7
2018-03-22T00:50:09.841Z,27.3
2018-03-22T00:50:59.728Z,26.9
2018-03-22T00:51:49.552Z,26.6
2018-03-22T00:52:39.875Z,26.3
2018-03-22T00:53:30.216Z,26.1
2018-03-22T00:54:19.643Z,25.9
2018-03-22T00:55:09.093Z,25.8
2018-03-22T00:55:59.948Z,25.5
2018-03-22T00:56:50.151Z,25.3
2018-03-22T00:57:40.661Z,25.3
2018-03-22T00:58:29.858Z,24.9
2018-03-22T00:59:19.332Z,24.6
2018-03-22T01:00:11.160Z,24.4
2018-03-22T01:01:01.253Z,24.2
2018-03-22T01:01:50.256Z,24.9
2018-03-22T01:02:40.652Z,25.7
2018-03-22T01:03:29.976Z,26.3
2018-03-22T01:04:20.767Z,26.8
2018-03-22T01:05:11.013Z,27.1
2018-03-22T01:06:00.754Z,27.4
2018-03-22T01:06:51.603Z,27.8
2018-03-22T01:07:40.663Z,28
2018-03-22T01:08:30.155Z,28.3
2018-03-22T01:09:21.708Z,28.4
2018-03-22T01:10:11.113Z,28.6
2018-03-22T01:11:00.920Z,28.8
2018-03-22T01:11:51.565Z,28.9
2018-03-22T01:12:41.249Z,29.1
2018-03-22T01:13:31.088Z,29.2
2018-03-22T01:14:21.557Z,29.3
2018-03-22T01:15:11.614Z,29.4
2018-03-22T01:16:02.066Z,29.6
2018-03-22T01:16:51.817Z,29.7
2018-03-22T01:17:42.424Z,29.8
2018-03-22T01:18:30.984Z,29.6
2018-03-22T01:19:22.427Z,28.8
2018-03-22T01:20:11.457Z,28
2018-03-22T01:21:01.505Z,27.5
2018-03-22T01:21:51.279Z,27.1
2018-03-22T01:22:42.075Z,26.8
2018-03-22T01:23:30.722Z,26.5
2018-03-22T01:24:22.120Z,26.3
2018-03-22T01:25:11.408Z,26
2018-03-22T01:26:02.481Z,25.8
2018-03-22T01:26:52.508Z,25.6
2018-03-22T01:27:42.182Z,25.4
2018-03-22T01:28:31.920Z,25.3
2018-03-22T01:29:20.617Z,25.1
2018-03-22T01:30:11.968Z,24.8
2018-03-22T01:31:02.221Z,24.6
2018-03-22T01:31:52.322Z,24.3
2018-03-22T01:32:42.952Z,24.2
2018-03-22T01:33:32.656Z,25
2018-03-22T01:34:22.862Z,25.8
2018-03-22T01:35:12.834Z,26.3
2018-03-22T01:36:02.468Z,26.7
2018-03-22T01:36:53.734Z,27.1
2018-03-22T01:37:43.781Z,27.4
2018-03-22T01:38:32.440Z,27.6
2018-03-22T01:39:23.404Z,27.9
2018-03-22T01:40:13.195Z,28.1
2018-03-22T01:41:03.296Z,28.3
2018-03-22T01:41:53.014Z,28.5
2018-03-22T01:42:42.973Z,28.6
2018-03-22T01:43:33.191Z,28.8
2018-03-22T01:44:23.483Z,28.9
2018-03-22T01:45:12.391Z,29.1
2018-03-22T01:46:03.671Z,29.2
2018-03-22T01:46:53.213Z,29.3
2018-03-22T01:47:43.900Z,29.4
2018-03-22T01:48:33.746Z,29.5
2018-03-22T01:49:23.583Z,29.6
2018-03-22T01:50:14.725Z,29.7
2018-03-22T01:51:03.541Z,29.8
2018-03-22T01:51:54.248Z,29.1
2018-03-22T01:52:43.918Z,28.3
2018-03-22T01:53:33.609Z,27.8
2018-03-22T01:54:24.173Z,27.3
2018-03-22T01:55:13.612Z,26.9
2018-03-22T01:56:03.881Z,26.6
2018-03-22T01:56:54.534Z,26.3
2018-03-22T01:57:44.373Z,26.1
2018-03-22T01:58:35.017Z,25.9
2018-03-22T01:59:24.412Z,25.7
2018-03-22T02:00:14.887Z,25.5
2018-03-22T02:01:04.887Z,25.3
2018-03-22T02:01:54.463Z,25.2
2018-03-22T02:02:45.231Z,24.9
2018-03-22T02:03:35.349Z,24.7
2018-03-22T02:04:24.260Z,24.4
2018-03-22T02:05:14.896Z,24.2
2018-03-22T02:06:04.397Z,24.4
2018-03-22T02:06:55.860Z,25.3
2018-03-22T02:07:44.521Z,25.9
2018-03-22T02:08:34.522Z,26.4
2018-03-22T02:09:25.683Z,26.8
2018-03-22T02:10:15.289Z,27.1
2018-03-22T02:11:05.494Z,27.4
2018-03-22T02:11:56.722Z,27.6
2018-03-22T02:13:34.724Z,28.1
2018-03-22T02:14:25.739Z,28.3
2018-03-22T02:15:15.596Z,28.4
2018-03-22T02:16:05.671Z,28.6
2018-03-22T02:16:54.662Z,28.8
2018-03-22T02:17:46.185Z,28.9
2018-03-22T02:18:35.739Z,28.9
2018-03-22T02:19:26.705Z,29.1
2018-03-22T02:20:15.967Z,29.2
2018-03-22T02:21:05.522Z,29.3
2018-03-22T02:21:56.144Z,29.3
2018-03-22T02:22:46.431Z,29.4
2018-03-22T02:23:35.969Z,29.5
2018-03-22T02:24:26.743Z,29.6
2018-03-22T02:25:15.039Z,29.6
2018-03-22T02:26:06.616Z,29.7
2018-03-22T02:26:56.740Z,29.1
2018-03-22T02:27:46.981Z,28.3
2018-03-22T02:28:37.631Z,27.7
2018-03-22T02:29:26.251Z,27.2
2018-03-22T02:30:17.473Z,26.9
2018-03-22T02:31:07.016Z,26.5
2018-03-22T02:31:56.504Z,26.3
2018-03-22T02:32:47.224Z,26
2018-03-22T02:33:37.426Z,25.8
2018-03-22T02:34:27.165Z,25.6
2018-03-22T02:35:17.247Z,25.4
2018-03-22T02:36:05.714Z,25.4
2018-03-22T02:36:57.051Z,25.1
2018-03-22T02:37:47.880Z,24.8
2018-03-22T02:38:37.055Z,24.5
2018-03-22T02:39:27.609Z,24.3
2018-03-22T02:40:18.094Z,24.1
2018-03-22T02:41:07.281Z,24.6
2018-03-22T02:41:57.297Z,25.4
2018-03-22T02:42:47.430Z,26
2018-03-22T02:43:37.118Z,26.4
2018-03-22T02:44:27.942Z,26.8
2018-03-22T02:45:17.568Z,27.1
2018-03-22T02:46:08.506Z,27.3
2018-03-22T02:46:57.841Z,27.6
2018-03-22T02:47:47.241Z,27.8
2018-03-22T02:48:38.166Z,27.9
2018-03-22T02:49:28.234Z,28.1
2018-03-22T02:50:19.130Z,28.3
2018-03-22T02:51:07.579Z,28.4
2018-03-22T02:51:57.967Z,28.6
2018-03-22T02:52:48.353Z,28.6
2018-03-22T02:53:37.997Z,28.8
2018-03-22T02:54:27.970Z,28.8
2018-03-22T02:55:18.529Z,28.9
2018-03-22T02:56:08.398Z,29
2018-03-22T02:56:58.868Z,29.1
2018-03-22T02:57:48.214Z,29.1
2018-03-22T02:58:38.858Z,29.1
2018-03-22T02:59:28.352Z,29.2
2018-03-22T03:00:19.495Z,29.3
2018-03-22T03:01:08.135Z,29.3
2018-03-22T03:01:59.473Z,29.4
2018-03-22T03:02:49.158Z,29.4
2018-03-22T03:03:38.213Z,29.4
2018-03-22T03:04:28.570Z,29.4
2018-03-22T03:05:18.402Z,29.5
2018-03-22T03:06:08.879Z,29.5
2018-03-22T03:06:58.859Z,29.5
2018-03-22T03:07:49.778Z,29.5
2018-03-22T03:08:39.636Z,29.5
2018-03-22T03:09:28.813Z,29.1
2018-03-22T03:10:18.463Z,28.3
2018-03-22T03:11:09.012Z,26.9
2018-03-22T03:11:58.648Z,25.9
2018-03-22T03:12:49.591Z,25.1
2018-03-22T03:13:39.565Z,24.2
2018-03-22T03:14:30.298Z,23.2
2018-03-22T03:15:19.966Z,22.1
2018-03-22T03:16:10.451Z,21.3
2018-03-22T03:16:59.425Z,21.6
2018-03-22T03:17:49.926Z,22
2018-03-22T03:18:40.004Z,23.4
2018-03-22T03:19:30.710Z,24.6
2018-03-22T03:20:19.538Z,25.4
2018-03-22T03:21:10.298Z,26.1
2018-03-22T03:22:01.300Z,26.7
2018-03-22T03:22:50.120Z,27.1
2018-03-22T03:23:40.883Z,27.5
2018-03-22T03:25:19.985Z,28.1
2018-03-22T03:26:10.342Z,28.4
2018-03-22T03:26:59.318Z,28.6
2018-03-22T03:27:50.447Z,28.8
2018-03-22T03:28:40.437Z,29
2018-03-22T03:29:31.289Z,29.1
2018-03-22T03:30:21.356Z,29.3
2018-03-22T03:31:11.029Z,29.4
2018-03-22T03:32:01.504Z,29.6
2018-03-22T03:32:50.835Z,29.8
2018-03-22T03:33:40.765Z,29.9
2018-03-22T03:34:32.163Z,29.8
2018-03-22T03:35:21.196Z,28.9
2018-03-22T03:36:11.964Z,28.3
2018-03-22T03:37:01.340Z,27.7
2018-03-22T03:37:49.897Z,27.3
2018-03-22T03:38:39.947Z,26.9
2018-03-22T03:39:30.660Z,26.6
2018-03-22T03:40:21.172Z,26.3
2018-03-22T03:41:10.995Z,26.1
2018-03-22T03:42:01.586Z,25.9
2018-03-22T03:42:51.117Z,25.7
2018-03-22T03:43:42.679Z,25.4
2018-03-22T03:44:31.647Z,25.4
2018-03-22T03:45:21.916Z,25.1
2018-03-22T03:46:11.429Z,24.8
2018-03-22T03:47:02.514Z,24.6
2018-03-22T03:47:51.720Z,24.3
2018-03-22T03:48:42.860Z,24.1
2018-03-22T03:49:32.009Z,24.9
2018-03-22T03:50:22.486Z,25.7
2018-03-22T03:51:12.529Z,26.3
2018-03-22T03:52:01.574Z,26.7
2018-03-22T03:52:53.203Z,27.1
2018-03-22T03:53:42.167Z,27.4
2018-03-22T03:54:32.732Z,27.7
2018-03-22T03:55:22.280Z,27.9
2018-03-22T03:56:12.257Z,28.1
2018-03-22T03:57:03.261Z,28.4
2018-03-22T03:57:52.177Z,28.6
2018-03-22T03:58:42.301Z,28.7
2018-03-22T03:59:33.511Z,28.8
2018-03-22T04:00:22.814Z,28.9
2018-03-22T04:01:13.568Z,29.1
2018-03-22T04:02:02.779Z,29.3
2018-03-22T04:02:53.182Z,29.4
2018-03-22T04:03:43.250Z,29.5
2018-03-22T04:04:33.736Z,29.6
2018-03-22T04:05:23.764Z,29.7
2018-03-22T04:06:13.138Z,29.8
2018-03-22T04:07:02.240Z,29.9
2018-03-22T04:07:53.163Z,29.1
2018-03-22T04:08:43.118Z,28.3
2018-03-22T04:09:33.283Z,27.7
2018-03-22T04:10:23.928Z,27.3
2018-03-22T04:11:14.027Z,26.9
2018-03-22T04:12:05.222Z,26.6
2018-03-22T04:12:54.612Z,26.3
2018-03-22T04:13:44.046Z,26.1
2018-03-22T04:14:34.115Z,25.9
2018-03-22T04:15:23.869Z,25.7
2018-03-22T04:16:14.027Z,25.5
2018-03-22T04:17:04.759Z,25.4
2018-03-22T04:17:54.222Z,25.1
2018-03-22T04:18:43.822Z,24.8
2018-03-22T04:19:34.651Z,24.5
2018-03-22T04:20:25.286Z,24.3
2018-03-22T04:21:13.972Z,24.1
2018-03-22T04:22:03.942Z,24.9
2018-03-22T04:22:54.820Z,25.6
2018-03-22T04:23:43.759Z,26.2
2018-03-22T04:24:34.530Z,26.6
2018-03-22T04:25:24.502Z,26.9
2018-03-22T04:26:13.454Z,27.3
2018-03-22T04:27:05.553Z,27.6
2018-03-22T04:28:44.940Z,28.1
2018-03-22T04:29:35.792Z,28.3
2018-03-22T04:30:25.028Z,28.4
2018-03-22T04:31:15.869Z,28.6
2018-03-22T04:32:05.643Z,28.7
2018-03-22T04:32:55.383Z,28.8
2018-03-22T04:33:45.736Z,28.9
2018-03-22T04:34:36.141Z,29.1
2018-03-22T04:35:25.396Z,29.2
2018-03-22T04:36:14.663Z,29.3
2018-03-22T04:37:05.311Z,29.4
2018-03-22T04:37:55.546Z,29.4
2018-03-22T04:38:45.563Z,29.6
2018-03-22T04:39:35.961Z,29.6
2018-03-22T04:40:25.700Z,29.8
2018-03-22T04:41:15.781Z,29.8
2018-03-22T04:42:05.135Z,29.3
2018-03-22T04:42:56.417Z,28.4
2018-03-22T04:43:46.063Z,27.7
2018-03-22T04:44:35.841Z,27.2
2018-03-22T04:45:26.888Z,26.8
2018-03-22T04:46:15.817Z,26.4
2018-03-22T04:47:05.721Z,26.2
2018-03-22T04:47:56.190Z,25.9
2018-03-22T04:48:47.234Z,25.8
2018-03-22T04:49:35.588Z,25.5
2018-03-22T04:50:25.843Z,25.4
2018-03-22T04:51:16.130Z,25.3
2018-03-22T04:52:06.137Z,25
2018-03-22T04:52:56.041Z,24.7
2018-03-22T04:53:47.968Z,24.4
2018-03-22T04:54:38.335Z,24.2
2018-03-22T04:55:27.775Z,24
2018-03-22T04:56:18.131Z,23.8
2018-03-22T04:57:07.853Z,23.6
2018-03-22T04:57:58.258Z,23.5
2018-03-22T04:58:48.058Z,23.3
2018-03-22T04:59:38.110Z,23.2
2018-03-22T05:00:28.450Z,23.4
2018-03-22T05:01:18.512Z,24.4
2018-03-22T05:02:06.840Z,25.2
2018-03-22T05:02:58.592Z,25.8
2018-03-22T05:03:48.410Z,26.3
2018-03-22T05:04:38.436Z,26.6
2018-03-22T05:05:28.482Z,26.9
2018-03-22T05:06:19.150Z,27.3
2018-03-22T05:07:08.986Z,27.4
2018-03-22T05:07:59.256Z,27.7
2018-03-22T05:08:48.142Z,27.9
2018-03-22T05:09:39.332Z,28
2018-03-22T05:10:29.702Z,28.2
2018-03-22T05:11:19.487Z,28.3
2018-03-22T05:12:08.996Z,28.4
2018-03-22T05:12:58.994Z,28.6
2018-03-22T05:13:48.943Z,28.7
2018-03-22T05:14:39.749Z,28.8
2018-03-22T05:15:29.269Z,28.9
2018-03-22T05:16:19.251Z,28.9
2018-03-22T05:17:09.079Z,29
2018-03-22T05:17:59.365Z,29.1
2018-03-22T05:18:50.213Z,29.1
2018-03-22T05:19:39.469Z,29.2
2018-03-22T05:20:29.569Z,29.3
2018-03-22T05:21:19.875Z,29.4
2018-03-22T05:22:10.239Z,29.4
2018-03-22T05:22:59.416Z,29.4
2018-03-22T05:23:50.642Z,29.5
2018-03-22T05:24:40.462Z,29.6
2018-03-22T05:25:30.217Z,29.6
2018-03-22T05:26:20.474Z,29.6
2018-03-22T05:27:10.010Z,29.5
2018-03-22T05:28:00.634Z,28.6
2018-03-22T05:28:50.949Z,27.9
2018-03-22T05:29:40.709Z,27.4
2018-03-22T05:30:30.509Z,27
2018-03-22T05:31:21.176Z,26.7
2018-03-22T05:32:10.623Z,26.4
2018-03-22T05:33:00.654Z,26.1
2018-03-22T05:33:51.068Z,25.9
2018-03-22T05:34:41.108Z,25.7
2018-03-22T05:35:31.415Z,25.5
2018-03-22T05:36:21.436Z,25.3
2018-03-22T05:37:11.263Z,25.2
2018-03-22T05:38:01.289Z,24.9
2018-03-22T05:38:51.358Z,24.6
2018-03-22T05:39:41.686Z,24.3
2018-03-22T05:40:31.477Z,24.1
2018-03-22T05:41:21.488Z,23.9
2018-03-22T05:42:10.833Z,23.8
2018-03-22T05:43:00.428Z,23.6
2018-03-22T05:43:50.500Z,23.4
2018-03-22T05:44:40.718Z,23.3
2018-03-22T05:45:29.205Z,23.2
2018-03-22T05:46:20.724Z,23.9
2018-03-22T05:47:10.240Z,24.8
2018-03-22T05:48:01.082Z,25.4
2018-03-22T05:48:51.021Z,25.9
2018-03-22T05:49:41.032Z,26.2
2018-03-22T05:50:31.325Z,26.5
2018-03-22T05:51:20.349Z,26.8
2018-03-22T05:52:10.948Z,27
2018-03-22T05:53:00.555Z,27.2
2018-03-22T05:53:51.082Z,27.4
2018-03-22T05:54:40.593Z,27.6
2018-03-22T05:55:30.908Z,27.7
2018-03-22T05:57:11.229Z,27.9
2018-03-22T05:58:01.639Z,28.1
2018-03-22T05:58:51.460Z,28.1
2018-03-22T05:59:41.240Z,28.2
2018-03-22T06:00:31.750Z,28.3
2018-03-22T06:01:22.451Z,28.3
2018-03-22T06:02:11.437Z,28.4
2018-03-22T06:03:01.580Z,28.4
2018-03-22T06:03:51.332Z,28.5
2018-03-22T06:04:41.547Z,28.5
2018-03-22T06:05:31.345Z,28.5
2018-03-22T06:06:21.306Z,28.6
2018-03-22T06:07:11.246Z,28.3
2018-03-22T06:08:02.127Z,27.4
2018-03-22T06:08:53.170Z,26.1
2018-03-22T06:09:42.225Z,25.1
2018-03-22T06:10:32.174Z,24.4
2018-03-22T06:11:22.833Z,23.6
2018-03-22T06:12:12.072Z,22.5
2018-03-22T06:13:02.109Z,21.6
2018-03-22T06:13:51.741Z,21
2018-03-22T06:14:42.962Z,21.3
2018-03-22T06:15:30.675Z,22.1
2018-03-22T06:16:23.191Z,23.4
2018-03-22T06:17:12.077Z,24.4
2018-03-22T06:18:03.180Z,25.3
2018-03-22T06:18:52.592Z,25.9
2018-03-22T06:19:41.824Z,26.4
2018-03-22T06:20:32.691Z,26.8
2018-03-22T06:21:22.644Z,27.2
2018-03-22T06:22:12.977Z,27.5
2018-03-22T06:23:02.929Z,27.8
2018-03-22T06:23:53.290Z,28
2018-03-22T06:24:42.181Z,28.3
2018-03-22T06:25:32.249Z,28.4
2018-03-22T06:26:23.012Z,28.6
2018-03-22T06:27:12.126Z,28.8
2018-03-22T06:28:03.976Z,28.9
2018-03-22T06:28:54.008Z,29.1
2018-03-22T06:29:43.244Z,29.3
2018-03-22T06:30:32.096Z,29.4
2018-03-22T06:31:23.313Z,29.5
2018-03-22T06:32:13.566Z,29.6
2018-03-22T06:33:03.738Z,29.8
2018-03-22T06:33:52.207Z,29.8
2018-03-22T06:34:43.911Z,29.9
2018-03-22T06:35:33.950Z,29.1
2018-03-22T06:36:23.791Z,28.3
2018-03-22T06:37:14.744Z,27.7
2018-03-22T06:38:03.661Z,27.2
2018-03-22T06:38:54.045Z,26.9
2018-03-22T06:39:44.023Z,26.5
2018-03-22T06:40:32.810Z,26.3
2018-03-22T06:41:23.768Z,26
2018-03-22T06:42:13.293Z,25.8
2018-03-22T06:43:03.523Z,25.6
2018-03-22T06:43:54.048Z,25.4
2018-03-22T06:44:44.370Z,25.3
2018-03-22T06:45:34.095Z,24.9
2018-03-22T06:46:23.911Z,24.6
2018-03-22T06:47:14.688Z,24.3
2018-03-22T06:48:04.417Z,24.1
2018-03-22T06:48:53.741Z,23.8
2018-03-22T06:49:44.927Z,23.7
2018-03-22T06:50:34.731Z,23.5
2018-03-22T06:51:24.428Z,23.3
2018-03-22T06:52:14.780Z,23.2
2018-03-22T06:53:06.194Z,23.4
2018-03-22T06:53:54.496Z,24.4
2018-03-22T06:54:45.097Z,25.3
2018-03-22T06:55:34.229Z,25.8
2018-03-22T06:56:24.122Z,26.3
2018-03-22T06:57:14.133Z,26.6
2018-03-22T06:58:06.075Z,27
2018-03-22T06:58:54.927Z,27.3
2018-03-22T06:59:44.888Z,27.6
2018-03-22T07:01:25.817Z,28
2018-03-22T07:02:15.614Z,28.2
2018-03-22T07:03:06.599Z,28.4
2018-03-22T07:03:56.602Z,28.5
2018-03-22T07:04:46.667Z,28.6
2018-03-22T07:05:35.842Z,28.8
2018-03-22T07:06:25.765Z,28.9
2018-03-22T07:07:14.691Z,29.1
2018-03-22T07:08:06.056Z,29.2
2018-03-22T07:08:55.026Z,29.3
2018-03-22T07:09:46.079Z,29.4
2018-03-22T07:10:36.465Z,29.5
2018-03-22T07:11:25.692Z,29.6
2018-03-22T07:12:16.590Z,29.7
2018-03-22T07:13:06.529Z,29.8
2018-03-22T07:13:55.914Z,29.9
2018-03-22T07:14:45.931Z,29.9
2018-03-22T07:15:35.653Z,29.6
2018-03-22T07:16:26.641Z,28.8
2018-03-22T07:17:16.896Z,28.1
2018-03-22T07:18:07.093Z,27.6
2018-03-22T07:18:56.263Z,27.2
2018-03-22T07:19:47.214Z,26.9
2018-03-22T07:20:36.156Z,26.6
2018-03-22T07:21:27.449Z,26.4
2018-03-22T07:22:17.266Z,26.1
2018-03-22T07:23:06.767Z,25.9
2018-03-22T07:23:56.951Z,25.8
2018-03-22T07:24:46.835Z,25.7
2018-03-22T07:25:35.323Z,25.4
2018-03-22T07:26:27.377Z,25.1
2018-03-22T07:27:17.963Z,24.8
2018-03-22T07:28:07.137Z,24.6
2018-03-22T07:28:57.320Z,24.3
2018-03-22T07:29:47.855Z,24.1
2018-03-22T07:30:37.600Z,23.9
2018-03-22T07:31:28.125Z,23.8
2018-03-22T07:32:18.126Z,23.6
2018-03-22T07:33:07.604Z,23.5
2018-03-22T07:33:58.550Z,23.8
2018-03-22T07:34:47.997Z,24.8
2018-03-22T07:35:39.771Z,25.5
2018-03-22T07:36:29.512Z,26.1
2018-03-22T07:37:19.009Z,26.6
2018-03-22T07:38:09.511Z,26.9
2018-03-22T07:38:59.151Z,27.2
2018-03-22T07:39:49.508Z,27.4
2018-03-22T07:40:38.337Z,27.8
2018-03-22T07:41:27.855Z,27.9
2018-03-22T07:42:18.743Z,28.1
2018-03-22T07:43:07.906Z,28.3
2018-03-22T07:43:57.880Z,28.5
2018-03-22T07:44:48.321Z,28.6
2018-03-22T07:45:38.368Z,28.8
2018-03-22T07:46:28.744Z,28.8
2018-03-22T07:47:19.406Z,28.9
2018-03-22T07:48:09.267Z,29.1
2018-03-22T07:48:59.482Z,29.1
2018-03-22T07:49:49.442Z,29.2
2018-03-22T07:50:37.628Z,29.3
2018-03-22T07:51:28.965Z,29.3
2018-03-22T07:52:18.220Z,29.4
2018-03-22T07:53:10.482Z,29.4
2018-03-22T07:53:59.923Z,29.5
2018-03-22T07:54:50.315Z,29.5
2018-03-22T07:55:39.127Z,29.6
2018-03-22T07:56:28.817Z,29.6
2018-03-22T07:57:20.457Z,29.6
2018-03-22T07:58:09.507Z,29.6
2018-03-22T07:58:59.606Z,29.6
2018-03-22T07:59:50.657Z,29.6
2018-03-22T08:00:39.542Z,29.7
2018-03-22T08:01:27.611Z,29.7
2018-03-22T08:02:18.721Z,29.7
2018-03-22T08:03:09.967Z,29.7
2018-03-22T08:03:59.647Z,29.7
2018-03-22T08:04:49.906Z,29.7
2018-03-22T08:05:39.739Z,29.8
2018-03-22T08:06:30.017Z,29.7
2018-03-22T08:07:19.567Z,29.7
2018-03-22T08:08:10.625Z,29.7
2018-03-22T08:08:59.566Z,29.7
2018-03-22T08:09:51.136Z,29.7
2018-03-22T08:10:39.977Z,29.6
2018-03-22T08:11:29.964Z,29.7
2018-03-22T08:12:20.238Z,29.6
2018-03-22T08:13:10.075Z,29.6
2018-03-22T08:13:59.838Z,29.6
2018-03-22T08:14:50.276Z,29.6
2018-03-22T08:15:40.049Z,29.6
2018-03-22T08:16:30.917Z,29.6
2018-03-22T08:17:20.798Z,29.6
2018-03-22T08:18:11.101Z,29.5
2018-03-22T08:19:00.451Z,29.5
2018-03-22T08:19:49.811Z,29.5
2018-03-22T08:20:41.459Z,29.4
2018-03-22T08:21:31.008Z,29.4
2018-03-22T08:22:20.908Z,29.4
2018-03-22T08:23:10.872Z,29.4
2018-03-22T08:24:00.609Z,29.4
2018-03-22T08:24:51.332Z,29.4
2018-03-22T08:25:40.284Z,29.4
2018-03-22T08:26:32.026Z,29.4
2018-03-22T08:27:21.521Z,29.3
2018-03-22T08:28:11.575Z,29.3
2018-03-22T08:29:01.933Z,29.3
2018-03-22T08:29:51.981Z,29.3
2018-03-22T08:30:40.664Z,29.3
2018-03-22T08:31:31.646Z,29.3
2018-03-22T08:32:21.868Z,29.3
2018-03-22T08:33:11.463Z,29.3
2018-03-22T08:34:01.651Z,29.2
2018-03-22T08:34:52.790Z,28.9
2018-03-22T08:35:41.936Z,28.1
2018-03-22T08:36:32.700Z,26.8
2018-03-22T08:37:22.117Z,25.8
2018-03-22T08:38:12.264Z,25
2018-03-22T08:39:01.917Z,24.1
2018-03-22T08:39:52.525Z,23.1
2018-03-22T08:40:42.935Z,22.1
2018-03-22T08:41:32.762Z,21.2
2018-03-22T08:42:23.415Z,21.3
2018-03-22T08:43:14.164Z,21.6
2018-03-22T08:44:02.251Z,22.9
2018-03-22T08:44:52.684Z,24.1
2018-03-22T08:45:42.589Z,25.1
2018-03-22T08:46:33.437Z,25.9
2018-03-22T08:47:22.527Z,26.6
2018-03-22T08:48:12.959Z,27.1
2018-03-22T08:49:03.125Z,27.5
2018-03-22T08:49:53.063Z,27.9
2018-03-22T08:50:43.370Z,28.2
2018-03-22T08:51:33.701Z,28.5
2018-03-22T08:52:22.972Z,28.8
2018-03-22T08:53:11.734Z,29
2018-03-22T08:54:03.880Z,29.3
2018-03-22T08:54:55.477Z,29.5
2018-03-22T08:55:44.205Z,29.7
2018-03-22T08:56:35.029Z,29.9
2018-03-22T08:57:24.629Z,30
2018-03-22T08:58:14.465Z,30.2
2018-03-22T08:59:03.954Z,30.3
2018-03-22T08:59:53.139Z,30.4
2018-03-22T09:00:44.044Z,29.8
2018-03-22T09:01:33.409Z,28.9
2018-03-22T09:02:23.974Z,28.4
2018-03-22T09:03:14.241Z,27.9
2018-03-22T09:04:04.041Z,27.5
2018-03-22T09:04:54.313Z,27.1
2018-03-22T09:05:44.749Z,26.9
2018-03-22T09:06:34.098Z,26.6
2018-03-22T09:07:24.076Z,26.4
2018-03-22T09:08:13.936Z,26.2
2018-03-22T09:09:05.006Z,26
2018-03-22T09:09:54.506Z,25.9
2018-03-22T09:10:44.560Z,25.6
2018-03-22T09:11:35.087Z,25.3
2018-03-22T09:12:22.978Z,24.9
2018-03-22T09:13:14.572Z,24.7
2018-03-22T09:14:04.734Z,24.4
2018-03-22T09:14:54.391Z,24.3
2018-03-22T09:15:44.817Z,24.1
2018-03-22T09:16:34.342Z,23.9
2018-03-22T09:17:25.323Z,23.8
2018-03-22T09:18:15.108Z,23.6
2018-03-22T09:19:05.201Z,23.6
2018-03-22T09:19:55.545Z,24.6
2018-03-22T09:20:44.972Z,25.4
2018-03-22T09:21:34.892Z,26.1
2018-03-22T09:22:25.078Z,26.6
2018-03-22T09:23:15.296Z,27.1
2018-03-22T09:24:05.030Z,27.5
2018-03-22T09:25:45.172Z,28.1
2018-03-22T09:26:34.630Z,28.4
2018-03-22T09:27:25.695Z,28.6
2018-03-22T09:28:15.850Z,28.8
2018-03-22T09:29:06.580Z,29.1
2018-03-22T09:29:55.649Z,29.2
2018-03-22T09:30:46.412Z,29.4
2018-03-22T09:31:35.678Z,29.6
2018-03-22T09:32:25.783Z,29.7
2018-03-22T09:33:16.496Z,29.9
2018-03-22T09:34:06.387Z,30
2018-03-22T09:34:56.861Z,30.1
2018-03-22T09:35:46.220Z,30.3
2018-03-22T09:36:36.125Z,30.4
2018-03-22T09:37:25.575Z,30.5
2018-03-22T09:38:17.964Z,29.9
2018-03-22T09:39:07.140Z,29.1
2018-03-22T09:39:56.929Z,28.4
2018-03-22T09:40:45.886Z,27.9
2018-03-22T09:41:37.245Z,27.5
2018-03-22T09:42:26.202Z,27.2
2018-03-22T09:43:15.847Z,26.9
2018-03-22T09:44:06.557Z,26.6
2018-03-22T09:44:56.592Z,26.4
2018-03-22T09:45:46.262Z,26.2
2018-03-22T09:46:36.079Z,26
2018-03-22T09:47:26.749Z,25.9
2018-03-22T09:48:17.192Z,25.6
2018-03-22T09:49:07.624Z,25.3
2018-03-22T09:49:58.013Z,24.9
2018-03-22T09:50:46.976Z,24.7
2018-03-22T09:51:37.114Z,24.4
2018-03-22T09:52:27.279Z,24.3
2018-03-22T09:53:17.548Z,24.1
2018-03-22T09:54:07.016Z,23.9
2018-03-22T09:54:57.393Z,23.7
2018-03-22T09:55:47.961Z,23.6
2018-03-22T09:56:37.694Z,23.8
2018-03-22T09:57:29.287Z,24.8
2018-03-22T09:58:18.172Z,25.6
2018-03-22T09:59:09.710Z,26.3
2018-03-22T09:59:59.152Z,26.8
2018-03-22T10:00:49.496Z,27.1
2018-03-22T10:01:39.844Z,27.5
2018-03-22T10:03:19.352Z,28.1
2018-03-22T10:04:09.157Z,28.3
2018-03-22T10:04:58.985Z,28.5
2018-03-22T10:05:48.802Z,28.7
2018-03-22T10:06:39.880Z,28.9
2018-03-22T10:07:30.265Z,29.1
2018-03-22T10:08:19.972Z,29.2
2018-03-22T10:09:09.289Z,29.4
2018-03-22T10:09:58.804Z,29.5
2018-03-22T10:10:49.103Z,29.6
2018-03-22T10:11:39.973Z,29.8
2018-03-22T10:12:30.023Z,29.9
2018-03-22T10:13:19.857Z,30
2018-03-22T10:14:09.328Z,30.1
2018-03-22T10:14:59.129Z,30.2
2018-03-22T10:15:50.030Z,30.3
2018-03-22T10:16:40.349Z,30.4
2018-03-22T10:17:29.481Z,30.1
2018-03-22T10:18:20.769Z,29.2
2018-03-22T10:19:10.561Z,28.5
2018-03-22T10:20:00.305Z,28
2018-03-22T10:20:50.577Z,27.6
2018-03-22T10:21:40.234Z,27.2
2018-03-22T10:22:30.756Z,26.9
2018-03-22T10:23:20.520Z,26.6
2018-03-22T10:24:10.022Z,26.4
2018-03-22T10:25:00.592Z,26.2
2018-03-22T10:25:50.222Z,26
2018-03-22T10:26:40.946Z,25.9
2018-03-22T10:27:31.094Z,25.6
2018-03-22T10:28:20.809Z,25.3
2018-03-22T10:29:10.569Z,25
2018-03-22T10:30:01.290Z,24.7
2018-03-22T10:30:51.079Z,24.5
2018-03-22T10:31:40.824Z,24.3
2018-03-22T10:32:31.336Z,24.1
2018-03-22T10:33:21.471Z,23.9
2018-03-22T10:34:10.955Z,23.8
2018-03-22T10:35:00.748Z,23.6
2018-03-22T10:35:49.895Z,23.6
2018-03-22T10:36:38.921Z,24.6
2018-03-22T10:37:30.533Z,25.4
2018-03-22T10:38:21.966Z,26
2018-03-22T10:39:10.509Z,26.4
2018-03-22T10:39:59.773Z,26.7
2018-03-22T10:40:50.353Z,26.9
2018-03-22T10:41:41.411Z,27.1
2018-03-22T10:42:30.976Z,27.3
2018-03-22T10:43:22.092Z,27.4
2018-03-22T10:44:10.340Z,27.6
2018-03-22T10:45:50.746Z,28.1
2018-03-22T10:46:41.278Z,28.3
2018-03-22T10:47:30.586Z,28.5
2018-03-22T10:48:22.351Z,28.7
2018-03-22T10:49:11.406Z,28.9
2018-03-22T10:50:00.815Z,29
2018-03-22T10:50:50.825Z,29.1
2018-03-22T10:51:41.711Z,29.3
2018-03-22T10:52:32.372Z,29.4
2018-03-22T10:53:21.856Z,29.4
2018-03-22T10:54:11.888Z,29.6
2018-03-22T10:55:01.341Z,29.6
2018-03-22T10:55:52.614Z,29.8
2018-03-22T10:56:41.272Z,29.8
2018-03-22T10:57:30.785Z,29.9
2018-03-22T10:58:21.639Z,29.9
2018-03-22T10:59:12.648Z,30
2018-03-22T11:00:01.130Z,30
2018-03-22T11:00:52.263Z,30
2018-03-22T11:01:41.263Z,30.1
2018-03-22T11:02:31.069Z,29.3
2018-03-22T11:03:23.088Z,28.5
2018-03-22T11:04:13.321Z,27.9
2018-03-22T11:05:01.357Z,27.5
2018-03-22T11:05:52.543Z,27.2
2018-03-22T11:06:42.889Z,26.8
2018-03-22T11:07:32.465Z,26.6
2018-03-22T11:08:23.229Z,26.3
2018-03-22T11:09:12.059Z,26.1
2018-03-22T11:10:02.384Z,25.9
2018-03-22T11:10:53.744Z,25.7
2018-03-22T11:11:42.432Z,25.6
2018-03-22T11:12:33.209Z,25.3
2018-03-22T11:13:23.019Z,24.9
2018-03-22T11:14:13.454Z,24.7